sensor_id;sensor_type;location;lat;lon;timestamp;pressure;altitude;pressure_sealevel;temperature
69785;BMP280;14177;51.520;6.764;2022-11-11T00:01:33;102700.63;;;10.50
69785;BMP280;14177;51.520;6.764;2022-11-11T00:04:18;102691.09;;;10.46
69785;BMP280;14177;51.520;6.764;2022-11-11T00:07:03;102698.03;;;10.45
69785;BMP280;14177;51.520;6.764;2022-11-11T00:09:49;102686.78;;;10.43
69785;BMP280;14177;51.520;6.764;2022-11-11T00:12:35;102679.81;;;10.44
69785;BMP280;14177;51.520;6.764;2022-11-11T00:15:20;102678.13;;;10.41
69785;BMP280;14177;51.520;6.764;2022-11-11T00:18:09;102691.09;;;10.35
69785;BMP280;14177;51.520;6.764;2022-11-11T00:21:14;102679.81;;;10.35
69785;BMP280;14177;51.520;6.764;2022-11-11T00:24:31;102675.50;;;10.34
69785;BMP280;14177;51.520;6.764;2022-11-11T00:27:37;102687.63;;;10.27
69785;BMP280;14177;51.520;6.764;2022-11-11T00:30:23;102691.97;;;10.22
69785;BMP280;14177;51.520;6.764;2022-11-11T00:33:08;102680.72;;;10.16
69785;BMP280;14177;51.520;6.764;2022-11-11T00:35:54;102674.66;;;10.17
69785;BMP280;14177;51.520;6.764;2022-11-11T00:38:40;102688.50;;;10.14
69785;BMP280;14177;51.520;6.764;2022-11-11T00:41:32;102696.28;;;10.14
69785;BMP280;14177;51.520;6.764;2022-11-11T00:44:17;102697.16;;;10.15
69785;BMP280;14177;51.520;6.764;2022-11-11T00:47:03;102691.09;;;10.17
69785;BMP280;14177;51.520;6.764;2022-11-11T00:50:13;102686.78;;;10.12
69785;BMP280;14177;51.520;6.764;2022-11-11T00:53:22;102701.47;;;10.11
69785;BMP280;14177;51.520;6.764;2022-11-11T00:56:12;102693.69;;;10.07
69785;BMP280;14177;51.520;6.764;2022-11-11T00:58:58;102691.97;;;10.06
69785;BMP280;14177;51.520;6.764;2022-11-11T01:01:44;102691.97;;;10.03
69785;BMP280;14177;51.520;6.764;2022-11-11T01:04:29;102703.22;;;10.02
69785;BMP280;14177;51.520;6.764;2022-11-11T01:07:15;102693.69;;;10.05
69785;BMP280;14177;51.520;6.764;2022-11-11T01:10:00;102704.09;;;10.07
69785;BMP280;14177;51.520;6.764;2022-11-11T01:12:46;102700.63;;;10.08
69785;BMP280;14177;51.520;6.764;2022-11-11T01:15:32;102695.44;;;10.08
69785;BMP280;14177;51.520;6.764;2022-11-11T01:18:21;102692.84;;;10.14
69785;BMP280;14177;51.520;6.764;2022-11-11T01:21:11;102687.63;;;10.11
69785;BMP280;14177;51.520;6.764;2022-11-11T01:23:57;102691.97;;;10.09
69785;BMP280;14177;51.520;6.764;2022-11-11T01:26:43;102690.22;;;10.09
69785;BMP280;14177;51.520;6.764;2022-11-11T01:29:29;102700.63;;;10.14
69785;BMP280;14177;51.520;6.764;2022-11-11T01:32:14;102703.22;;;10.18
69785;BMP280;14177;51.520;6.764;2022-11-11T01:35:00;102704.06;;;10.22
69785;BMP280;14177;51.520;6.764;2022-11-11T01:37:45;102714.47;;;10.22
69785;BMP280;14177;51.520;6.764;2022-11-11T01:40:39;102715.34;;;10.16
69785;BMP280;14177;51.520;6.764;2022-11-11T01:43:25;102713.63;;;10.20
69785;BMP280;14177;51.520;6.764;2022-11-11T01:46:25;102714.47;;;10.25
69785;BMP280;14177;51.520;6.764;2022-11-11T01:49:36;102713.63;;;10.27
69785;BMP280;14177;51.520;6.764;2022-11-11T01:52:31;102711.00;;;10.29
69785;BMP280;14177;51.520;6.764;2022-11-11T01:55:20;102707.53;;;10.36
69785;BMP280;14177;51.520;6.764;2022-11-11T01:58:10;102702.34;;;10.42
69785;BMP280;14177;51.520;6.764;2022-11-11T02:00:58;102697.16;;;10.45
69785;BMP280;14177;51.520;6.764;2022-11-11T02:03:45;102693.69;;;10.49
69785;BMP280;14177;51.520;6.764;2022-11-11T02:06:55;102697.16;;;10.46
69785;BMP280;14177;51.520;6.764;2022-11-11T02:09:46;102700.63;;;10.50
69785;BMP280;14177;51.520;6.764;2022-11-11T02:12:32;102705.81;;;10.53
69785;BMP280;14177;51.520;6.764;2022-11-11T02:15:37;102704.97;;;10.43
69785;BMP280;14177;51.520;6.764;2022-11-11T02:18:23;102713.63;;;10.42
69785;BMP280;14177;51.520;6.764;2022-11-11T02:21:13;102711.88;;;10.40
69785;BMP280;14177;51.520;6.764;2022-11-11T02:24:08;102724.88;;;10.40
69785;BMP280;14177;51.520;6.764;2022-11-11T02:26:54;102720.53;;;10.39
69785;BMP280;14177;51.520;6.764;2022-11-11T02:29:45;102725.72;;;10.36
69785;BMP280;14177;51.520;6.764;2022-11-11T02:32:31;102733.53;;;10.37
69785;BMP280;14177;51.520;6.764;2022-11-11T02:35:23;102736.13;;;10.33
69785;BMP280;14177;51.520;6.764;2022-11-11T02:38:10;102733.53;;;10.27
69785;BMP280;14177;51.520;6.764;2022-11-11T02:40:56;102736.13;;;10.30
69785;BMP280;14177;51.520;6.764;2022-11-11T02:44:01;102727.47;;;10.29
69785;BMP280;14177;51.520;6.764;2022-11-11T02:46:46;102724.00;;;10.29
69785;BMP280;14177;51.520;6.764;2022-11-11T02:49:32;102720.53;;;10.28
69785;BMP280;14177;51.520;6.764;2022-11-11T02:52:18;102722.25;;;10.28
69785;BMP280;14177;51.520;6.764;2022-11-11T02:55:04;102714.47;;;10.22
69785;BMP280;14177;51.520;6.764;2022-11-11T02:57:50;102707.53;;;10.13
69785;BMP280;14177;51.520;6.764;2022-11-11T03:00:35;102704.09;;;10.13
69785;BMP280;14177;51.520;6.764;2022-11-11T03:03:21;102720.53;;;10.13
69785;BMP280;14177;51.520;6.764;2022-11-11T03:06:08;102716.22;;;10.11
69785;BMP280;14177;51.520;6.764;2022-11-11T03:08:53;102721.41;;;10.14
69785;BMP280;14177;51.520;6.764;2022-11-11T03:11:39;102722.25;;;10.11
69785;BMP280;14177;51.520;6.764;2022-11-11T03:14:25;102723.13;;;10.12
69785;BMP280;14177;51.520;6.764;2022-11-11T03:17:11;102716.22;;;10.08
69785;BMP280;14177;51.520;6.764;2022-11-11T03:20:17;102711.00;;;10.05
69785;BMP280;14177;51.520;6.764;2022-11-11T03:23:21;102699.72;;;10.01
69785;BMP280;14177;51.520;6.764;2022-11-11T03:26:08;102694.56;;;10.00
69785;BMP280;14177;51.520;6.764;2022-11-11T03:28:55;102696.22;;;9.96
69785;BMP280;14177;51.520;6.764;2022-11-11T03:31:40;102704.88;;;9.92
69785;BMP280;14177;51.520;6.764;2022-11-11T03:34:28;102715.25;;;9.89
69785;BMP280;14177;51.520;6.764;2022-11-11T03:37:14;102712.69;;;9.91
69785;BMP280;14177;51.520;6.764;2022-11-11T03:40:18;102708.34;;;9.87
69785;BMP280;14177;51.520;6.764;2022-11-11T03:43:03;102706.59;;;9.84
69785;BMP280;14177;51.520;6.764;2022-11-11T03:45:54;102709.19;;;9.83
69785;BMP280;14177;51.520;6.764;2022-11-11T03:48:40;102709.19;;;9.87
69785;BMP280;14177;51.520;6.764;2022-11-11T03:51:26;102718.72;;;9.85
69785;BMP280;14177;51.520;6.764;2022-11-11T03:54:11;102718.72;;;9.85
69785;BMP280;14177;51.520;6.764;2022-11-11T03:56:58;102722.19;;;9.86
69785;BMP280;14177;51.520;6.764;2022-11-11T04:00:03;102734.31;;;9.79
69785;BMP280;14177;51.520;6.764;2022-11-11T04:03:03;102739.47;;;9.76
69785;BMP280;14177;51.520;6.764;2022-11-11T04:06:09;102737.75;;;9.83
69785;BMP280;14177;51.520;6.764;2022-11-11T04:09:13;102734.28;;;9.81
69785;BMP280;14177;51.520;6.764;2022-11-11T04:12:23;102731.69;;;9.81
69785;BMP280;14177;51.520;6.764;2022-11-11T04:15:09;102727.34;;;9.77
69785;BMP280;14177;51.520;6.764;2022-11-11T04:18:13;102723.88;;;9.75
69785;BMP280;14177;51.520;6.764;2022-11-11T04:20:59;102736.00;;;9.73
69785;BMP280;14177;51.520;6.764;2022-11-11T04:24:03;102733.38;;;9.70
69785;BMP280;14177;51.520;6.764;2022-11-11T04:27:15;102730.75;;;9.61
69785;BMP280;14177;51.520;6.764;2022-11-11T04:30:00;102722.94;;;9.52
69785;BMP280;14177;51.520;6.764;2022-11-11T04:32:46;102721.22;;;9.45
69785;BMP280;14177;51.520;6.764;2022-11-11T04:35:32;102722.03;;;9.38
69785;BMP280;14177;51.520;6.764;2022-11-11T04:38:17;102723.72;;;9.32
69785;BMP280;14177;51.520;6.764;2022-11-11T04:41:21;102717.63;;;9.24
69785;BMP280;14177;51.520;6.764;2022-11-11T04:44:16;102715.91;;;9.18
69785;BMP280;14177;51.520;6.764;2022-11-11T04:47:20;102712.41;;;9.13
69785;BMP280;14177;51.520;6.764;2022-11-11T04:50:06;102706.34;;;9.07
69785;BMP280;14177;51.520;6.764;2022-11-11T04:52:52;102715.81;;;9.06
69785;BMP280;14177;51.520;6.764;2022-11-11T04:55:39;102723.63;;;9.08
69785;BMP280;14177;51.520;6.764;2022-11-11T04:58:43;102718.44;;;9.08
69785;BMP280;14177;51.520;6.764;2022-11-11T05:01:31;102727.94;;;9.06
69785;BMP280;14177;51.520;6.764;2022-11-11T05:04:34;102717.59;;;9.13
69785;BMP280;14177;51.520;6.764;2022-11-11T05:07:20;102719.28;;;9.08
69785;BMP280;14177;51.520;6.764;2022-11-11T05:10:24;102715.84;;;9.09
69785;BMP280;14177;51.520;6.764;2022-11-11T05:13:10;102711.50;;;9.08
69785;BMP280;14177;51.520;6.764;2022-11-11T05:16:24;102715.84;;;9.09
69785;BMP280;14177;51.520;6.764;2022-11-11T05:19:30;102707.19;;;9.06
69785;BMP280;14177;51.520;6.764;2022-11-11T05:22:41;102714.09;;;9.05
69785;BMP280;14177;51.520;6.764;2022-11-11T05:25:27;102723.59;;;9.03
69785;BMP280;14177;51.520;6.764;2022-11-11T05:28:18;102710.66;;;9.05
69785;BMP280;14177;51.520;6.764;2022-11-11T05:31:03;102725.31;;;9.04
69785;BMP280;14177;51.520;6.764;2022-11-11T05:33:49;102724.44;;;9.02
69785;BMP280;14177;51.520;6.764;2022-11-11T05:36:34;102727.03;;;9.01
69785;BMP280;14177;51.520;6.764;2022-11-11T05:39:20;102735.69;;;9.00
69785;BMP280;14177;51.520;6.764;2022-11-11T05:42:06;102738.25;;;8.98
69785;BMP280;14177;51.520;6.764;2022-11-11T05:44:52;102736.56;;;9.02
69785;BMP280;14177;51.520;6.764;2022-11-11T05:47:37;102739.97;;;8.99
69785;BMP280;14177;51.520;6.764;2022-11-11T05:50:23;102738.28;;;9.01
69785;BMP280;14177;51.520;6.764;2022-11-11T05:53:08;102737.41;;;9.01
69785;BMP280;14177;51.520;6.764;2022-11-11T05:55:54;102734.81;;;8.99
69785;BMP280;14177;51.520;6.764;2022-11-11T05:58:39;102735.66;;;8.98
69785;BMP280;14177;51.520;6.764;2022-11-11T06:01:25;102735.69;;;9.01
69785;BMP280;14177;51.520;6.764;2022-11-11T06:04:11;102739.16;;;9.05
69785;BMP280;14177;51.520;6.764;2022-11-11T06:07:02;102745.22;;;9.05
69785;BMP280;14177;51.520;6.764;2022-11-11T06:09:48;102742.66;;;9.07
69785;BMP280;14177;51.520;6.764;2022-11-11T06:12:33;102753.00;;;9.07
69785;BMP280;14177;51.520;6.764;2022-11-11T06:15:39;102755.59;;;9.05
69785;BMP280;14177;51.520;6.764;2022-11-11T06:18:25;102759.06;;;9.06
69785;BMP280;14177;51.520;6.764;2022-11-11T06:21:15;102757.31;;;9.05
69785;BMP280;14177;51.520;6.764;2022-11-11T06:24:01;102776.38;;;9.11
69785;BMP280;14177;51.520;6.764;2022-11-11T06:26:46;102771.19;;;9.11
69785;BMP280;14177;51.520;6.764;2022-11-11T06:29:32;102766.00;;;9.10
69785;BMP280;14177;51.520;6.764;2022-11-11T06:32:17;102776.34;;;9.13
69785;BMP280;14177;51.520;6.764;2022-11-11T06:35:03;102781.59;;;9.17
69785;BMP280;14177;51.520;6.764;2022-11-11T06:37:48;102787.63;;;9.16
69785;BMP280;14177;51.520;6.764;2022-11-11T06:40:34;102790.25;;;9.19
69785;BMP280;14177;51.520;6.764;2022-11-11T06:43:20;102795.47;;;9.22
69785;BMP280;14177;51.520;6.764;2022-11-11T06:46:15;102799.78;;;9.23
69785;BMP280;14177;51.520;6.764;2022-11-11T06:49:03;102809.34;;;9.30
69785;BMP280;14177;51.520;6.764;2022-11-11T06:51:50;102813.66;;;9.30
69785;BMP280;14177;51.520;6.764;2022-11-11T06:54:41;102820.56;;;9.29
69785;BMP280;14177;51.520;6.764;2022-11-11T06:57:26;102820.59;;;9.34
69785;BMP280;14177;51.520;6.764;2022-11-11T07:00:12;102830.13;;;9.33
69785;BMP280;14177;51.520;6.764;2022-11-11T07:02:59;102826.66;;;9.34
69785;BMP280;14177;51.520;6.764;2022-11-11T07:05:45;102830.13;;;9.33
69785;BMP280;14177;51.520;6.764;2022-11-11T07:08:31;102831.00;;;9.38
69785;BMP280;14177;51.520;6.764;2022-11-11T07:11:17;102822.34;;;9.38
69785;BMP280;14177;51.520;6.764;2022-11-11T07:14:04;102822.38;;;9.42
69785;BMP280;14177;51.520;6.764;2022-11-11T07:16:50;102821.53;;;9.45
69785;BMP280;14177;51.520;6.764;2022-11-11T07:19:38;102814.59;;;9.48
69785;BMP280;14177;51.520;6.764;2022-11-11T07:22:23;102807.69;;;9.47
69785;BMP280;14177;51.520;6.764;2022-11-11T07:25:09;102803.38;;;9.49
69785;BMP280;14177;51.520;6.764;2022-11-11T07:27:55;102814.63;;;9.54
69785;BMP280;14177;51.520;6.764;2022-11-11T07:30:45;102815.53;;;9.59
69785;BMP280;14177;51.520;6.764;2022-11-11T07:33:30;102816.44;;;9.67
69785;BMP280;14177;51.520;6.764;2022-11-11T07:36:15;102821.63;;;9.67
69785;BMP280;14177;51.520;6.764;2022-11-11T07:39:01;102805.19;;;9.66
69785;BMP280;14177;51.520;6.764;2022-11-11T07:41:53;102820.78;;;9.71
69785;BMP280;14177;51.520;6.764;2022-11-11T07:44:38;102813.88;;;9.73
69785;BMP280;14177;51.520;6.764;2022-11-11T07:47:42;102819.94;;;9.75
69785;BMP280;14177;51.520;6.764;2022-11-11T07:50:28;102817.38;;;9.79
69785;BMP280;14177;51.520;6.764;2022-11-11T07:53:14;102813.06;;;9.81
69785;BMP280;14177;51.520;6.764;2022-11-11T07:56:00;102821.69;;;9.86
69785;BMP280;14177;51.520;6.764;2022-11-11T07:58:46;102824.31;;;9.92
69785;BMP280;14177;51.520;6.764;2022-11-11T08:01:33;102822.63;;;9.96
69785;BMP280;14177;51.520;6.764;2022-11-11T08:04:20;102826.16;;;10.07
69785;BMP280;14177;51.520;6.764;2022-11-11T08:07:08;102819.25;;;10.12
69785;BMP280;14177;51.520;6.764;2022-11-11T08:09:55;102826.16;;;10.22
69785;BMP280;14177;51.520;6.764;2022-11-11T08:12:43;102822.75;;;10.27
69785;BMP280;14177;51.520;6.764;2022-11-11T08:15:47;102834.88;;;10.33
69785;BMP280;14177;51.520;6.764;2022-11-11T08:18:33;102830.53;;;10.38
69785;BMP280;14177;51.520;6.764;2022-11-11T08:21:19;102837.50;;;10.46
69785;BMP280;14177;51.520;6.764;2022-11-11T08:24:06;102838.38;;;10.53
69785;BMP280;14177;51.520;6.764;2022-11-11T08:27:12;102839.25;;;10.55
69785;BMP280;14177;51.520;6.764;2022-11-11T08:29:58;102845.31;;;10.60
69785;BMP280;14177;51.520;6.764;2022-11-11T08:32:44;102840.09;;;10.67
69785;BMP280;14177;51.520;6.764;2022-11-11T08:35:30;102849.66;;;10.74
69785;BMP280;14177;51.520;6.764;2022-11-11T08:38:16;102847.06;;;10.82
69785;BMP280;14177;51.520;6.764;2022-11-11T08:41:03;102846.22;;;10.86
69785;BMP280;14177;51.520;6.764;2022-11-11T08:43:53;102848.78;;;10.90
69785;BMP280;14177;51.520;6.764;2022-11-11T08:46:38;102841.84;;;10.96
69785;BMP280;14177;51.520;6.764;2022-11-11T08:49:24;102855.72;;;11.04
69785;BMP280;14177;51.520;6.764;2022-11-11T08:52:09;102854.84;;;11.11
69785;BMP280;14177;51.520;6.764;2022-11-11T08:54:54;102862.66;;;11.16
69785;BMP280;14177;51.520;6.764;2022-11-11T08:57:40;102855.72;;;11.24
69785;BMP280;14177;51.520;6.764;2022-11-11T09:00:26;102855.69;;;11.30
69785;BMP280;14177;51.520;6.764;2022-11-11T09:03:11;102849.59;;;11.38
69785;BMP280;14177;51.520;6.764;2022-11-11T09:05:57;102859.13;;;11.44
69785;BMP280;14177;51.520;6.764;2022-11-11T09:08:43;102863.50;;;11.55
69785;BMP280;14177;51.520;6.764;2022-11-11T09:11:28;102868.63;;;11.76
69785;BMP280;14177;51.520;6.764;2022-11-11T09:14:20;102861.56;;;12.02
69785;BMP280;14177;51.520;6.764;2022-11-11T09:17:06;102870.13;;;12.26
69785;BMP280;14177;51.520;6.764;2022-11-11T09:19:51;102867.44;;;12.44
69785;BMP280;14177;51.520;6.764;2022-11-11T09:22:42;102872.47;;;12.67
69785;BMP280;14177;51.520;6.764;2022-11-11T09:25:28;102863.66;;;12.86
69785;BMP280;14177;51.520;6.764;2022-11-11T09:28:13;102878.34;;;13.02
69785;BMP280;14177;51.520;6.764;2022-11-11T09:31:00;102878.34;;;13.02
69785;BMP280;14177;51.520;6.764;2022-11-11T09:34:05;102875.72;;;13.00
69785;BMP280;14177;51.520;6.764;2022-11-11T09:36:50;102880.91;;;13.08
69785;BMP280;14177;51.520;6.764;2022-11-11T09:39:36;102880.75;;;13.23
69785;BMP280;14177;51.520;6.764;2022-11-11T09:42:39;102879.63;;;13.47
69785;BMP280;14177;51.520;6.764;2022-11-11T09:48:55;102885.16;;;13.97
69785;BMP280;14177;51.520;6.764;2022-11-11T09:51:51;102878.81;;;14.19
69785;BMP280;14177;51.520;6.764;2022-11-11T09:54:52;102878.56;;;14.37
69785;BMP280;14177;51.520;6.764;2022-11-11T09:58:22;102886.25;;;14.48
69785;BMP280;14177;51.520;6.764;2022-11-11T10:01:12;102885.03;;;14.71
69785;BMP280;14177;51.520;6.764;2022-11-11T10:07:20;102875.56;;;15.17
69785;BMP280;14177;51.520;6.764;2022-11-11T10:13:19;102876.25;;;15.73
69785;BMP280;14177;51.520;6.764;2022-11-11T10:16:15;102873.09;;;16.00
69785;BMP280;14177;51.520;6.764;2022-11-11T10:22:18;102870.94;;;16.18
69785;BMP280;14177;51.520;6.764;2022-11-11T10:28:02;102879.97;;;15.62
69785;BMP280;14177;51.520;6.764;2022-11-11T10:30:49;102881.13;;;15.47
69785;BMP280;14177;51.520;6.764;2022-11-11T10:33:51;102883.88;;;15.40
69785;BMP280;14177;51.520;6.764;2022-11-11T10:36:49;102885.78;;;15.32
69785;BMP280;14177;51.520;6.764;2022-11-11T10:40:05;102874.56;;;15.24
69785;BMP280;14177;51.520;6.764;2022-11-11T10:42:52;102883.38;;;15.18
69785;BMP280;14177;51.520;6.764;2022-11-11T10:45:44;102881.69;;;15.16
69785;BMP280;14177;51.520;6.764;2022-11-11T10:51:41;102881.47;;;15.29
69785;BMP280;14177;51.520;6.764;2022-11-11T10:54:49;102881.25;;;15.41
69785;BMP280;14177;51.520;6.764;2022-11-11T10:57:45;102878.53;;;15.46
69785;BMP280;14177;51.520;6.764;2022-11-11T11:00:37;102877.34;;;15.62
69785;BMP280;14177;51.520;6.764;2022-11-11T11:03:39;102872.19;;;16.01
69785;BMP280;14177;51.520;6.764;2022-11-11T11:06:29;102878.66;;;16.24
69785;BMP280;14177;51.520;6.764;2022-11-11T11:09:29;102880.31;;;16.28
69785;BMP280;14177;51.520;6.764;2022-11-11T11:12:34;102868.84;;;16.35
69785;BMP280;14177;51.520;6.764;2022-11-11T11:15:22;102874.50;;;16.55
69785;BMP280;14177;51.520;6.764;2022-11-11T11:18:13;102870.78;;;16.65
69785;BMP280;14177;51.520;6.764;2022-11-11T11:21:04;102869.69;;;16.74
69785;BMP280;14177;51.520;6.764;2022-11-11T11:23:50;102863.47;;;16.76
69785;BMP280;14177;51.520;6.764;2022-11-11T11:26:44;102857.78;;;16.94
69785;BMP280;14177;51.520;6.764;2022-11-11T11:29:41;102856.72;;;17.01
69785;BMP280;14177;51.520;6.764;2022-11-11T11:32:29;102854.09;;;17.01
69785;BMP280;14177;51.520;6.764;2022-11-11T11:38:39;102857.09;;;16.88
69785;BMP280;14177;51.520;6.764;2022-11-11T11:41:42;102858.16;;;16.79
69785;BMP280;14177;51.520;6.764;2022-11-11T11:44:32;102846.97;;;16.73
69785;BMP280;14177;51.520;6.764;2022-11-11T11:47:45;102847.84;;;16.73
69785;BMP280;14177;51.520;6.764;2022-11-11T11:50:55;102846.75;;;16.80
69785;BMP280;14177;51.520;6.764;2022-11-11T11:54:03;102846.69;;;16.83
69785;BMP280;14177;51.520;6.764;2022-11-11T11:56:56;102836.63;;;17.00
69785;BMP280;14177;51.520;6.764;2022-11-11T11:59:51;102836.25;;;17.13
69785;BMP280;14177;51.520;6.764;2022-11-11T12:18:26;102818.91;;;16.75
69785;BMP280;14177;51.520;6.764;2022-11-11T12:21:20;102819.59;;;16.83
69785;BMP280;14177;51.520;6.764;2022-11-11T12:24:33;102817.56;;;16.92
69785;BMP280;14177;51.520;6.764;2022-11-11T12:27:34;102814.69;;;17.03
69785;BMP280;14177;51.520;6.764;2022-11-11T12:30:24;102811.31;;;16.98
69785;BMP280;14177;51.520;6.764;2022-11-11T12:36:38;102804.59;;;16.86
69785;BMP280;14177;51.520;6.764;2022-11-11T13:04:44;102786.25;;;16.51
69785;BMP280;14177;51.520;6.764;2022-11-11T13:11:04;102777.59;;;16.48
69785;BMP280;14177;51.520;6.764;2022-11-11T13:17:12;102797.34;;;16.24
69785;BMP280;14177;51.520;6.764;2022-11-11T13:23:20;102801.38;;;16.02
69785;BMP280;14177;51.520;6.764;2022-11-11T13:26:25;102793.72;;;15.92
69785;BMP280;14177;51.520;6.764;2022-11-11T13:32:22;102796.53;;;15.83
69785;BMP280;14177;51.520;6.764;2022-11-11T13:35:32;102791.97;;;15.92
69785;BMP280;14177;51.520;6.764;2022-11-11T13:38:25;102803.78;;;16.11
69785;BMP280;14177;51.520;6.764;2022-11-11T13:41:12;102800.84;;;16.25
69785;BMP280;14177;51.520;6.764;2022-11-11T13:44:06;102799.78;;;16.35
69785;BMP280;14177;51.520;6.764;2022-11-11T13:46:59;102804.84;;;16.42
69785;BMP280;14177;51.520;6.764;2022-11-11T13:49:53;102802.22;;;16.42
69785;BMP280;14177;51.520;6.764;2022-11-11T13:52:52;102798.69;;;16.43
69785;BMP280;14177;51.520;6.764;2022-11-11T13:55:41;102796.91;;;16.44
69785;BMP280;14177;51.520;6.764;2022-11-11T13:58:33;102792.41;;;16.50
69785;BMP280;14177;51.520;6.764;2022-11-11T14:01:20;102794.88;;;16.56
69785;BMP280;14177;51.520;6.764;2022-11-11T14:04:08;102804.41;;;16.60
69785;BMP280;14177;51.520;6.764;2022-11-11T14:06:54;102795.50;;;16.67
69785;BMP280;14177;51.520;6.764;2022-11-11T14:09:57;102796.81;;;16.83
69785;BMP280;14177;51.520;6.764;2022-11-11T14:12:49;102800.75;;;17.01
69785;BMP280;14177;51.520;6.764;2022-11-11T14:15:47;102802.66;;;16.94
69785;BMP280;14177;51.520;6.764;2022-11-11T14:18:43;102805.84;;;17.07
69785;BMP280;14177;51.520;6.764;2022-11-11T14:21:46;102807.56;;;17.08
69785;BMP280;14177;51.520;6.764;2022-11-11T14:24:43;102799.47;;;17.15
69785;BMP280;14177;51.520;6.764;2022-11-11T14:27:31;102795.41;;;17.37
69785;BMP280;14177;51.520;6.764;2022-11-11T14:30:30;102798.72;;;17.43
69785;BMP280;14177;51.520;6.764;2022-11-11T14:33:26;102790.91;;;17.71
69785;BMP280;14177;51.520;6.764;2022-11-11T14:36:58;102795.44;;;17.95
69785;BMP280;14177;51.520;6.764;2022-11-11T14:39:50;102798.25;;;18.18
69785;BMP280;14177;51.520;6.764;2022-11-11T14:51:42;102789.50;;;17.59
69785;BMP280;14177;51.520;6.764;2022-11-11T14:54:36;102787.19;;;17.15
69785;BMP280;14177;51.520;6.764;2022-11-11T14:57:46;102790.16;;;16.70
69785;BMP280;14177;51.520;6.764;2022-11-11T15:00:47;102792.84;;;16.32
69785;BMP280;14177;51.520;6.764;2022-11-11T15:03:39;102803.06;;;16.03
69785;BMP280;14177;51.520;6.764;2022-11-11T15:06:32;102802.66;;;15.83
69785;BMP280;14177;51.520;6.764;2022-11-11T15:12:57;102813.75;;;15.55
69785;BMP280;14177;51.520;6.764;2022-11-11T15:16:13;102816.66;;;15.39
69785;BMP280;14177;51.520;6.764;2022-11-11T15:19:17;102813.41;;;15.26
69785;BMP280;14177;51.520;6.764;2022-11-11T15:34:45;102814.69;;;14.53
69785;BMP280;14177;51.520;6.764;2022-11-11T15:37:31;102823.63;;;14.39
69785;BMP280;14177;51.520;6.764;2022-11-11T15:40:21;102826.44;;;14.25
69785;BMP280;14177;51.520;6.764;2022-11-11T15:46:02;102822.50;;;13.93
69785;BMP280;14177;51.520;6.764;2022-11-11T15:48:49;102824.44;;;13.77
69785;BMP280;14177;51.520;6.764;2022-11-11T15:51:36;102824.63;;;13.61
69785;BMP280;14177;51.520;6.764;2022-11-11T15:54:22;102823.03;;;13.48
69785;BMP280;14177;51.520;6.764;2022-11-11T15:57:30;102816.31;;;13.29
69785;BMP280;14177;51.520;6.764;2022-11-11T16:03:21;102815.75;;;12.94
69785;BMP280;14177;51.520;6.764;2022-11-11T16:06:12;102820.19;;;12.82
69785;BMP280;14177;51.520;6.764;2022-11-11T16:08:58;102824.63;;;12.74
69785;BMP280;14177;51.520;6.764;2022-11-11T16:11:54;102822.06;;;12.65
69785;BMP280;14177;51.520;6.764;2022-11-11T16:14:43;102825.63;;;12.55
69785;BMP280;14177;51.520;6.764;2022-11-11T16:17:40;102831.75;;;12.48
69785;BMP280;14177;51.520;6.764;2022-11-11T16:20:41;102830.13;;;12.35
69785;BMP280;14177;51.520;6.764;2022-11-11T16:23:30;102824.09;;;12.25
69785;BMP280;14177;51.520;6.764;2022-11-11T16:26:23;102831.09;;;12.17
69785;BMP280;14177;51.520;6.764;2022-11-11T16:29:15;102826.81;;;12.05
69785;BMP280;14177;51.520;6.764;2022-11-11T16:38:31;102833.91;;;11.74
69785;BMP280;14177;51.520;6.764;2022-11-11T16:41:30;102828.75;;;11.62
69785;BMP280;14177;51.520;6.764;2022-11-11T16:44:31;102830.50;;;11.51
69785;BMP280;14177;51.520;6.764;2022-11-11T16:50:27;102831.38;;;11.37
69785;BMP280;14177;51.520;6.764;2022-11-11T16:58:25;102825.34;;;11.18
69785;BMP280;14177;51.520;6.764;2022-11-11T17:05:07;102833.19;;;10.99
69785;BMP280;14177;51.520;6.764;2022-11-11T17:09:07;102821.03;;;10.86
69785;BMP280;14177;51.520;6.764;2022-11-11T17:12:33;102818.47;;;10.79
69785;BMP280;14177;51.520;6.764;2022-11-11T17:19:13;102821.91;;;10.66
69785;BMP280;14177;51.520;6.764;2022-11-11T17:22:53;102820.19;;;10.59
69785;BMP280;14177;51.520;6.764;2022-11-11T17:25:58;102820.16;;;10.50
69785;BMP280;14177;51.520;6.764;2022-11-11T17:29:25;102828.84;;;10.41
69785;BMP280;14177;51.520;6.764;2022-11-11T17:32:30;102821.88;;;10.33
69785;BMP280;14177;51.520;6.764;2022-11-11T17:35:33;102824.47;;;10.25
69785;BMP280;14177;51.520;6.764;2022-11-11T17:39:07;102826.19;;;10.16
69785;BMP280;14177;51.520;6.764;2022-11-11T17:41:54;102821.84;;;10.09
69785;BMP280;14177;51.520;6.764;2022-11-11T17:44:46;102824.34;;;9.98
69785;BMP280;14177;51.520;6.764;2022-11-11T17:47:36;102826.06;;;9.93
69785;BMP280;14177;51.520;6.764;2022-11-11T17:50:38;102828.63;;;9.86
69785;BMP280;14177;51.520;6.764;2022-11-11T17:53:25;102823.41;;;9.80
69785;BMP280;14177;51.520;6.764;2022-11-11T17:56:14;102831.22;;;9.75
69785;BMP280;14177;51.520;6.764;2022-11-11T17:59:00;102826.84;;;9.70
69785;BMP280;14177;51.520;6.764;2022-11-11T18:01:49;102826.81;;;9.65
69785;BMP280;14177;51.520;6.764;2022-11-11T18:04:37;102830.25;;;9.60
69785;BMP280;14177;51.520;6.764;2022-11-11T18:07:24;102831.06;;;9.53
69785;BMP280;14177;51.520;6.764;2022-11-11T18:10:13;102831.03;;;9.44
69785;BMP280;14177;51.520;6.764;2022-11-11T18:13:03;102832.69;;;9.35
69785;BMP280;14177;51.520;6.764;2022-11-11T18:15:49;102837.00;;;9.28
69785;BMP280;14177;51.520;6.764;2022-11-11T18:18:39;102836.09;;;9.23
69785;BMP280;14177;51.520;6.764;2022-11-11T18:21:27;102845.56;;;9.18
69785;BMP280;14177;51.520;6.764;2022-11-11T18:24:14;102849.00;;;9.14
69785;BMP280;14177;51.520;6.764;2022-11-11T18:27:17;102841.19;;;9.11
69785;BMP280;14177;51.520;6.764;2022-11-11T18:30:07;102855.84;;;9.05
69785;BMP280;14177;51.520;6.764;2022-11-11T18:32:55;102849.75;;;8.97
69785;BMP280;14177;51.520;6.764;2022-11-11T18:35:44;102861.78;;;8.93
69785;BMP280;14177;51.520;6.764;2022-11-11T18:38:34;102857.44;;;8.88